KMCX

White County Airport

Monticello, Indiana, USA
METAR KMCX 220055Z AUTO 04010KT 10SM OVC015 01/M01 A3055 RMK AO2 T00051015
Observed Flight Rules
Feb-22 @ 00:55 UTC (4 hours ago) Marginal Visual Flight Rules
Wind Visibility Clouds
40° at 10 knots 10 miles
  • Overcast at 1,500' AGL
Temperatures Readings
Current 1°C / 34°F
Dewpoint -2°C / 28°F
Humidity 81%
Altimeter 30.55" Hg
Pressure 1035 hPa
Elevation 206
METAR KMCX 220055Z AUTO 04010KT 10SM OVC015 01/M01 A3055 RMK AO2 T00051015
Observed Flight Rules
Feb-22 @ 00:55 UTC
(4 hours ago)
MVFR
Wind Visibility
40° at 10 knots 10 miles
Clouds
  • Overcast at 1,500' AGL
Temperature Dewpoint
1°C / 34°F -2°C / 28°F
Humidity Altimeter Pressure
81% 30.55" Hg 1035 hPa